Time;durP1;ratioP1;P1;durP2;ratioP2;P2;SDS_P1;SDS_P2;PMS_P1;PMS_P2;Temp;Humidity;BMP_temperature;BMP_pressure;BME280_temperature;BME280_humidity;BME280_pressure;Samples;Min_cycle;Max_cycle;Signal;HPM_P1;HPM_P2
2023/01/18 00:14:37;;;;;;;;;;;5.70;93.00;;;;;;5069370;28;19984;-87
2023/01/18 00:17:03;;;;;;;;;;;5.80;92.70;;;;;;5075153;28;19945;-88
2023/01/18 00:19:28;;;;;;;;;;;5.70;92.90;;;;;;5075025;28;20062;-87
2023/01/18 00:21:54;;;;;;;;;;;5.90;92.90;;;;;;5074851;28;20023;-88
2023/01/18 00:24:22;;;;;;;;;;;6.00;92.80;;;;;;5074766;28;19951;-88
2023/01/18 00:26:48;;;;;;;;;;;6.10;92.50;;;;;;5074972;28;19937;-87
2023/01/18 00:29:14;;;;;;;;;;;6.00;91.60;;;;;;5074913;28;19978;-87
2023/01/18 00:31:40;;;;;;;;;;;5.90;91.70;;;;;;5074660;28;19981;-88
2023/01/18 00:34:06;;;;;;;;;;;5.90;91.80;;;;;;5074753;28;20376;-87
2023/01/18 00:36:31;;;;;;;;;;;5.80;92.10;;;;;;5074728;28;19941;-87
2023/01/18 00:38:57;;;;;;;;;;;5.70;92.10;;;;;;5074639;28;20007;-87
2023/01/18 00:41:22;;;;;;;;;;;5.70;92.30;;;;;;5074369;28;19952;-87
2023/01/18 00:43:48;;;;;;;;;;;5.70;92.30;;;;;;5074612;28;19948;-87
2023/01/18 00:46:15;;;;;;;;;;;5.60;92.50;;;;;;5074554;28;19943;-88
2023/01/18 00:48:41;;;;;;;;;;;5.60;92.30;;;;;;5074471;28;19961;-88
2023/01/18 00:51:09;;;;;;;;;;;5.50;92.30;;;;;;5073961;28;19984;-88
2023/01/18 00:53:36;;;;;;;;;;;5.30;92.50;;;;;;5074163;28;19972;-88
2023/01/18 00:56:03;;;;;;;;;;;5.10;92.80;;;;;;5074253;28;19938;-87
2023/01/18 00:58:29;;;;;;;;;;;5.10;93.50;;;;;;5074273;28;20457;-87
2023/01/18 01:00:54;;;;;;;;;;;5.00;93.80;;;;;;5073907;28;20411;-87
2023/01/18 01:03:20;;;;;;;;;;;5.00;94.20;;;;;;5074237;28;19942;-87
2023/01/18 01:08:30;;;;;;;;;;;5.00;94.60;;;;;;5074157;28;19941;-87
2023/01/18 01:11:07;;;;;;;;;;;4.90;94.70;;;;;;5073807;28;19941;-87
2023/01/18 01:27:16;;;;;;;;;;;5.00;95.00;;;;;;5073806;28;20321;-87
2023/01/18 01:29:41;;;;;;;;;;;5.00;94.90;;;;;;5091215;28;19967;-87
2023/01/18 01:32:07;;;;;;;;;;;4.90;95.00;;;;;;5093716;28;20401;-87
2023/01/18 01:34:32;;;;;;;;;;;4.90;94.90;;;;;;5093868;28;20290;-87
2023/01/18 01:36:58;;;;;;;;;;;4.90;94.90;;;;;;5093924;28;20021;-87
2023/01/18 01:39:24;;;;;;;;;;;4.90;94.90;;;;;;5078392;28;19971;-87
2023/01/18 01:41:49;;;;;;;;;;;4.90;95.00;;;;;;5073547;28;19947;-87
2023/01/18 01:44:23;;;;;;;;;;;4.80;95.00;;;;;;5073493;28;19937;-87
2023/01/18 01:46:51;;;;;;;;;;;4.80;95.00;;;;;;5073429;28;19949;-88
2023/01/18 01:49:23;;;;;;;;;;;4.70;95.10;;;;;;5087048;28;19968;-87
2023/01/18 01:52:06;;;;;;;;;;;4.70;95.20;;;;;;5075417;28;19941;-87
2023/01/18 01:54:36;;;;;;;;;;;4.70;95.40;;;;;;5075435;28;20452;-87
2023/01/18 01:57:06;;;;;;;;;;;4.60;95.30;;;;;;5084355;28;19945;-87
2023/01/18 01:59:36;;;;;;;;;;;4.60;95.40;;;;;;5073176;28;19960;-87
2023/01/18 02:02:02;;;;;;;;;;;4.60;95.50;;;;;;5055315;28;19938;-87
2023/01/18 02:04:28;;;;;;;;;;;4.50;95.50;;;;;;5073275;28;19935;-87
2023/01/18 02:06:53;;;;;;;;;;;4.50;95.60;;;;;;5077047;28;19969;-88
2023/01/18 02:09:22;;;;;;;;;;;4.50;95.70;;;;;;5073176;28;19945;-87
2023/01/18 02:11:51;;;;;;;;;;;4.40;95.70;;;;;;5073126;28;19938;-87
2023/01/18 02:14:17;;;;;;;;;;;4.40;95.80;;;;;;5072927;28;19976;-87
2023/01/18 02:16:46;;;;;;;;;;;4.30;95.90;;;;;;5078307;28;19952;-87
2023/01/18 02:19:21;;;;;;;;;;;4.30;95.90;;;;;;5093169;28;20398;-87
2023/01/18 02:21:57;;;;;;;;;;;4.20;95.90;;;;;;5093192;28;19977;-87
2023/01/18 02:24:41;;;;;;;;;;;4.20;95.90;;;;;;5093268;28;19937;-87
2023/01/18 02:27:21;;;;;;;;;;;4.20;96.00;;;;;;5083968;28;19944;-87
2023/01/18 02:29:46;;;;;;;;;;;4.10;96.00;;;;;;5072989;28;19937;-87
2023/01/18 02:32:17;;;;;;;;;;;4.10;96.00;;;;;;5072952;28;19947;-87
2023/01/18 02:35:04;;;;;;;;;;;4.20;96.00;;;;;;5072886;28;19942;-87
2023/01/18 02:37:39;;;;;;;;;;;4.30;96.00;;;;;;5066545;28;19945;-88
2023/01/18 02:40:14;;;;;;;;;;;4.40;95.70;;;;;;5093021;28;19962;-87
2023/01/18 02:48:14;;;;;;;;;;;4.00;95.50;;;;;;5075190;28;19996;-87
2023/01/18 02:50:40;;;;;;;;;;;4.00;95.60;;;;;;5072809;28;19978;-87
2023/01/18 02:53:09;;;;;;;;;;;3.90;95.30;;;;;;5072687;28;19999;-87
2023/01/18 02:55:37;;;;;;;;;;;3.80;95.40;;;;;;5072576;28;20308;-87
2023/01/18 02:58:08;;;;;;;;;;;3.80;95.50;;;;;;5088193;28;20047;-87
2023/01/18 03:00:36;;;;;;;;;;;3.80;95.70;;;;;;5092805;28;20488;-87
2023/01/18 03:03:04;;;;;;;;;;;3.80;95.70;;;;;;5092851;28;19988;-87
2023/01/18 03:05:30;;;;;;;;;;;3.70;95.60;;;;;;5090789;28;19950;-88
2023/01/18 03:08:05;;;;;;;;;;;3.70;95.60;;;;;;5092797;28;19946;-87
2023/01/18 03:10:33;;;;;;;;;;;3.70;95.70;;;;;;5074192;28;19940;-87
2023/01/18 03:13:00;;;;;;;;;;;3.80;95.70;;;;;;5072370;28;20048;-87
2023/01/18 03:15:47;;;;;;;;;;;3.80;95.80;;;;;;5089241;28;19977;-87
2023/01/18 03:18:20;;;;;;;;;;;3.80;95.80;;;;;;5092686;28;19938;-87
2023/01/18 03:20:47;;;;;;;;;;;3.90;95.90;;;;;;5092590;28;19940;-87
2023/01/18 03:26:03;;;;;;;;;;;3.90;95.70;;;;;;5052732;28;19995;-87
2023/01/18 03:34:16;;;;;;;;;;;3.80;95.80;;;;;;5068578;28;20024;-87
2023/01/18 03:36:46;;;;;;;;;;;3.80;95.80;;;;;;5096204;28;20414;-87
2023/01/18 03:39:29;;;;;;;;;;;3.80;96.00;;;;;;5096073;28;19956;-86
2023/01/18 03:41:59;;;;;;;;;;;3.80;96.10;;;;;;5096111;28;19936;-87
2023/01/18 03:44:30;;;;;;;;;;;3.80;96.30;;;;;;5087634;28;19939;-87
2023/01/18 03:46:56;;;;;;;;;;;3.90;96.30;;;;;;5075738;28;19944;-87
2023/01/18 03:49:22;;;;;;;;;;;3.90;96.40;;;;;;5075702;28;19938;-87
2023/01/18 03:52:05;;;;;;;;;;;3.90;96.40;;;;;;5075546;28;19941;-87
2023/01/18 03:54:40;;;;;;;;;;;4.00;96.40;;;;;;5084093;28;19936;-87
2023/01/18 03:57:09;;;;;;;;;;;4.00;96.30;;;;;;5095438;28;19948;-87
2023/01/18 03:59:36;;;;;;;;;;;4.00;96.40;;;;;;5095698;28;19981;-87
2023/01/18 04:02:03;;;;;;;;;;;4.00;96.40;;;;;;5095669;28;19949;-87
2023/01/18 04:04:28;;;;;;;;;;;4.00;96.30;;;;;;5087355;28;19944;-87
2023/01/18 04:06:54;;;;;;;;;;;4.10;96.40;;;;;;5086365;28;19951;-86
2023/01/18 04:09:19;;;;;;;;;;;4.20;96.30;;;;;;5077458;28;20039;-86
2023/01/18 04:11:45;;;;;;;;;;;4.20;96.30;;;;;;5095457;28;19976;-87
2023/01/18 04:14:10;;;;;;;;;;;4.10;96.10;;;;;;5089773;28;20109;-88
2023/01/18 04:16:36;;;;;;;;;;;4.10;96.20;;;;;;5075194;28;20400;-87
2023/01/18 04:19:01;;;;;;;;;;;4.20;96.20;;;;;;5075336;28;20445;-88
2023/01/18 04:21:27;;;;;;;;;;;4.20;96.10;;;;;;5075067;28;20404;-87
2023/01/18 04:23:52;;;;;;;;;;;4.20;96.10;;;;;;5077212;28;19945;-87
2023/01/18 04:26:18;;;;;;;;;;;4.20;96.10;;;;;;5094905;28;19942;-87
2023/01/18 04:28:43;;;;;;;;;;;4.20;96.00;;;;;;5095199;28;20302;-87
2023/01/18 04:31:09;;;;;;;;;;;4.20;96.00;;;;;;5095124;28;20454;-87
2023/01/18 04:33:34;;;;;;;;;;;4.20;96.00;;;;;;5094785;28;20399;-86
2023/01/18 04:36:00;;;;;;;;;;;4.30;96.00;;;;;;5074767;28;20418;-87
2023/01/18 04:38:27;;;;;;;;;;;4.30;95.90;;;;;;5074742;28;20451;-87
2023/01/18 04:40:52;;;;;;;;;;;4.30;95.80;;;;;;5074449;28;19957;-87
2023/01/18 04:43:18;;;;;;;;;;;4.40;95.80;;;;;;5074639;28;20030;-87
2023/01/18 04:45:51;;;;;;;;;;;4.40;95.70;;;;;;5092065;28;20078;-87
2023/01/18 04:48:16;;;;;;;;;;;4.30;95.70;;;;;;5094814;28;19985;-87
2023/01/18 04:50:45;;;;;;;;;;;4.30;95.80;;;;;;5076564;28;19944;-87
2023/01/18 04:53:10;;;;;;;;;;;4.40;95.90;;;;;;5094685;28;19939;-87
2023/01/18 04:55:36;;;;;;;;;;;4.50;95.90;;;;;;5077746;28;19950;-87
2023/01/18 04:58:02;;;;;;;;;;;4.60;95.90;;;;;;5074323;28;19947;-87
2023/01/18 05:00:27;;;;;;;;;;;4.60;95.70;;;;;;5074216;28;19960;-87
2023/01/18 05:02:53;;;;;;;;;;;4.60;95.60;;;;;;5074290;28;19947;-87
2023/01/18 05:05:18;;;;;;;;;;;4.70;95.60;;;;;;5087843;28;19948;-86
2023/01/18 05:07:44;;;;;;;;;;;4.90;95.50;;;;;;5094084;28;20397;-87
2023/01/18 05:10:09;;;;;;;;;;;4.80;95.30;;;;;;5094361;28;20405;-87
2023/01/18 05:12:36;;;;;;;;;;;4.80;95.10;;;;;;5094181;28;19949;-87
2023/01/18 05:15:01;;;;;;;;;;;4.80;95.20;;;;;;5089211;28;20352;-87
2023/01/18 05:17:29;;;;;;;;;;;5.10;94.80;;;;;;5094265;28;19935;-87
2023/01/18 05:19:55;;;;;;;;;;;5.10;93.70;;;;;;5094106;28;19964;-88
2023/01/18 05:22:21;;;;;;;;;;;4.90;92.80;;;;;;5094207;28;19937;-87
2023/01/18 05:24:47;;;;;;;;;;;4.80;92.90;;;;;;5085227;28;19946;-87
2023/01/18 05:27:13;;;;;;;;;;;4.70;93.20;;;;;;5073766;28;19950;-87
2023/01/18 05:29:39;;;;;;;;;;;4.50;93.60;;;;;;5073789;28;19936;-87
2023/01/18 05:32:09;;;;;;;;;;;4.50;93.90;;;;;;5073732;28;19937;-87
2023/01/18 05:34:34;;;;;;;;;;;4.50;93.70;;;;;;5080317;28;19951;-87
2023/01/18 05:37:00;;;;;;;;;;;4.50;93.70;;;;;;5093857;28;19938;-87
2023/01/18 05:39:25;;;;;;;;;;;4.50;93.80;;;;;;5093785;28;19957;-86
2023/01/18 05:41:51;;;;;;;;;;;4.50;93.90;;;;;;5093869;28;19945;-87
2023/01/18 05:44:17;;;;;;;;;;;4.50;94.00;;;;;;5089484;28;19954;-87
2023/01/18 05:46:42;;;;;;;;;;;4.60;94.00;;;;;;5055642;28;19946;-87
2023/01/18 05:49:07;;;;;;;;;;;4.50;93.90;;;;;;5073454;28;19990;-87
2023/01/18 05:51:34;;;;;;;;;;;4.50;94.30;;;;;;5072867;28;19950;-87
2023/01/18 05:53:59;;;;;;;;;;;4.70;94.40;;;;;;5074392;28;20492;-87
2023/01/18 05:56:25;;;;;;;;;;;4.90;94.30;;;;;;5093425;28;19985;-88
2023/01/18 05:58:50;;;;;;;;;;;4.90;93.80;;;;;;5093480;28;19947;-87
2023/01/18 06:01:16;;;;;;;;;;;4.80;93.50;;;;;;5090358;28;19949;-87
2023/01/18 06:03:41;;;;;;;;;;;4.70;93.60;;;;;;5073253;28;20080;-87
2023/01/18 06:06:07;;;;;;;;;;;4.70;93.50;;;;;;5073175;28;20023;-88
2023/01/18 06:08:33;;;;;;;;;;;4.60;93.60;;;;;;5073249;28;20056;-87
2023/01/18 06:10:59;;;;;;;;;;;4.60;93.70;;;;;;5073214;28;19935;-87
2023/01/18 06:13:29;;;;;;;;;;;4.60;93.90;;;;;;5092522;28;19976;-87
2023/01/18 06:15:55;;;;;;;;;;;4.50;93.90;;;;;;5093273;28;19939;-87
2023/01/18 06:18:25;;;;;;;;;;;4.50;93.90;;;;;;5093280;28;20030;-87
2023/01/18 06:20:57;;;;;;;;;;;4.40;94.40;;;;;;5092901;28;19940;-87
2023/01/18 06:23:23;;;;;;;;;;;4.50;94.30;;;;;;5054671;28;20310;-87
2023/01/18 06:25:48;;;;;;;;;;;4.40;94.40;;;;;;5072912;28;19945;-87
2023/01/18 06:28:15;;;;;;;;;;;4.30;94.50;;;;;;5073795;28;19944;-87
2023/01/18 06:30:41;;;;;;;;;;;4.30;94.70;;;;;;5073239;28;20486;-88
2023/01/18 06:33:07;;;;;;;;;;;4.40;94.90;;;;;;5071441;28;19946;-87
2023/01/18 06:35:33;;;;;;;;;;;4.50;94.80;;;;;;5076411;28;19983;-87
2023/01/18 06:37:59;;;;;;;;;;;4.50;94.80;;;;;;5071661;28;19990;-88
2023/01/18 06:40:24;;;;;;;;;;;4.50;94.80;;;;;;5072542;28;20497;-87
2023/01/18 06:42:50;;;;;;;;;;;4.50;94.80;;;;;;5083669;28;19948;-87
2023/01/18 06:45:18;;;;;;;;;;;4.70;94.90;;;;;;5085139;28;19999;-87
2023/01/18 06:47:44;;;;;;;;;;;4.70;94.70;;;;;;5072792;28;19954;-87
2023/01/18 06:50:10;;;;;;;;;;;4.70;94.80;;;;;;5078067;28;19945;-87
2023/01/18 06:52:35;;;;;;;;;;;4.60;94.60;;;;;;5077664;28;19961;-87
2023/01/18 06:55:01;;;;;;;;;;;4.70;94.60;;;;;;5072088;28;20044;-87
2023/01/18 06:57:26;;;;;;;;;;;4.90;94.60;;;;;;5071304;28;20414;-87
2023/01/18 06:59:52;;;;;;;;;;;5.00;94.50;;;;;;5079132;28;20410;-88
2023/01/18 07:02:18;;;;;;;;;;;4.90;94.30;;;;;;5067507;28;20855;-87
2023/01/18 07:04:44;;;;;;;;;;;4.80;94.40;;;;;;5067309;28;20049;-87
2023/01/18 07:07:13;;;;;;;;;;;4.90;94.50;;;;;;5073770;28;20505;-87
2023/01/18 07:09:38;;;;;;;;;;;4.90;94.30;;;;;;5074791;28;19947;-88
2023/01/18 07:12:04;;;;;;;;;;;4.80;94.20;;;;;;5087361;28;19966;-88
2023/01/18 07:14:29;;;;;;;;;;;4.80;94.20;;;;;;5082229;28;19983;-87
2023/01/18 07:16:55;;;;;;;;;;;4.70;94.30;;;;;;5074589;28;19944;-87
2023/01/18 07:19:20;;;;;;;;;;;4.80;94.40;;;;;;5072663;28;19966;-87
2023/01/18 07:21:47;;;;;;;;;;;4.70;94.30;;;;;;5073411;28;19968;-87
2023/01/18 07:24:12;;;;;;;;;;;4.60;94.20;;;;;;5077282;28;19967;-87
2023/01/18 07:26:38;;;;;;;;;;;4.50;94.50;;;;;;5077973;28;19962;-87
2023/01/18 07:29:03;;;;;;;;;;;4.50;94.60;;;;;;5073271;28;20326;-87
2023/01/18 07:31:29;;;;;;;;;;;4.60;94.80;;;;;;5068459;28;20009;-87
2023/01/18 07:33:55;;;;;;;;;;;4.90;94.70;;;;;;5075011;28;19949;-87
2023/01/18 07:36:21;;;;;;;;;;;5.00;94.30;;;;;;5084014;28;19947;-87
2023/01/18 07:38:47;;;;;;;;;;;5.00;93.60;;;;;;5072644;28;19970;-88
2023/01/18 07:41:14;;;;;;;;;;;4.90;93.40;;;;;;5079541;28;19963;-87
2023/01/18 07:43:40;;;;;;;;;;;4.90;93.50;;;;;;5073647;28;20420;-87
2023/01/18 07:46:07;;;;;;;;;;;4.90;93.70;;;;;;5083794;28;20017;-87
2023/01/18 07:48:33;;;;;;;;;;;4.80;93.90;;;;;;5071926;28;19939;-87
2023/01/18 07:50:59;;;;;;;;;;;4.90;93.90;;;;;;5071834;28;19966;-87
2023/01/18 07:53:25;;;;;;;;;;;4.90;93.80;;;;;;5071918;28;19940;-87
2023/01/18 07:55:51;;;;;;;;;;;5.00;93.70;;;;;;5076083;28;20020;-87
2023/01/18 07:58:17;;;;;;;;;;;4.90;93.60;;;;;;5085687;28;20419;-87
2023/01/18 08:00:42;;;;;;;;;;;4.80;93.70;;;;;;5072080;28;19954;-87
2023/01/18 08:03:11;;;;;;;;;;;4.70;93.80;;;;;;5066285;28;19942;-87
2023/01/18 08:05:36;;;;;;;;;;;4.70;94.10;;;;;;5071519;28;19952;-87
2023/01/18 08:08:02;;;;;;;;;;;4.90;94.00;;;;;;5071584;28;19953;-88
2023/01/18 08:10:28;;;;;;;;;;;5.00;94.10;;;;;;5064574;28;19941;-87
2023/01/18 08:12:54;;;;;;;;;;;5.10;93.30;;;;;;5068708;28;19965;-87
2023/01/18 08:15:19;;;;;;;;;;;5.00;92.50;;;;;;5072741;28;20322;-87
2023/01/18 08:17:45;;;;;;;;;;;4.90;92.70;;;;;;5073654;28;19955;-88
2023/01/18 08:20:10;;;;;;;;;;;5.00;92.80;;;;;;5074114;28;19954;-87
2023/01/18 08:22:36;;;;;;;;;;;4.90;92.70;;;;;;5067003;28;19951;-87
2023/01/18 08:25:02;;;;;;;;;;;5.00;92.80;;;;;;5071063;28;20357;-87
2023/01/18 08:27:28;;;;;;;;;;;5.10;92.60;;;;;;5069746;28;19945;-87
2023/01/18 08:29:53;;;;;;;;;;;5.20;92.30;;;;;;5070524;28;19949;-87
2023/01/18 08:32:19;;;;;;;;;;;5.00;92.10;;;;;;5075147;28;19945;-87
2023/01/18 08:34:44;;;;;;;;;;;4.90;92.70;;;;;;5074342;28;19940;-87
2023/01/18 08:37:10;;;;;;;;;;;5.00;93.10;;;;;;5072669;28;20408;-87
2023/01/18 08:39:36;;;;;;;;;;;5.00;93.20;;;;;;5072091;28;19969;-88
2023/01/18 08:42:02;;;;;;;;;;;5.10;93.20;;;;;;5069244;28;20328;-87
2023/01/18 08:44:27;;;;;;;;;;;5.10;93.10;;;;;;5064504;28;19947;-87
2023/01/18 08:46:53;;;;;;;;;;;5.00;93.00;;;;;;5070405;28;19951;-87
2023/01/18 08:49:18;;;;;;;;;;;5.00;93.10;;;;;;5070612;28;20302;-87
2023/01/18 08:51:44;;;;;;;;;;;4.90;93.20;;;;;;5065763;28;20423;-87
2023/01/18 08:54:09;;;;;;;;;;;4.90;93.30;;;;;;5069635;28;19957;-87
2023/01/18 08:56:35;;;;;;;;;;;4.90;93.40;;;;;;5067681;28;20379;-87
2023/01/18 08:59:01;;;;;;;;;;;4.90;93.50;;;;;;5070008;28;19986;-87
2023/01/18 09:01:27;;;;;;;;;;;4.90;93.40;;;;;;5067582;28;20466;-87
2023/01/18 09:03:54;;;;;;;;;;;4.90;93.60;;;;;;5071173;28;19973;-87
2023/01/18 09:06:19;;;;;;;;;;;4.80;93.90;;;;;;5074580;28;19950;-87
2023/01/18 09:08:47;;;;;;;;;;;4.80;94.20;;;;;;5070343;28;19953;-87
2023/01/18 09:11:14;;;;;;;;;;;4.80;94.30;;;;;;5069314;28;19948;-86
2023/01/18 09:13:40;;;;;;;;;;;4.80;94.30;;;;;;5074827;22;19986;-87
2023/01/18 09:16:07;;;;;;;;;;;4.90;94.50;;;;;;5067998;28;19948;-87
2023/01/18 09:18:33;;;;;;;;;;;5.00;94.40;;;;;;5065666;28;20049;-87
2023/01/18 09:21:03;;;;;;;;;;;5.10;94.20;;;;;;5068011;28;20051;-87
2023/01/18 09:23:31;;;;;;;;;;;5.10;94.00;;;;;;5068515;28;20278;-88
2023/01/18 09:26:04;;;;;;;;;;;5.20;94.00;;;;;;5073855;28;19939;-87
2023/01/18 09:28:30;;;;;;;;;;;5.30;93.60;;;;;;5070984;28;19942;-87
2023/01/18 09:31:00;;;;;;;;;;;5.30;93.20;;;;;;5072506;28;19953;-87
2023/01/18 09:33:25;;;;;;;;;;;5.40;93.30;;;;;;5066564;28;19950;-87
2023/01/18 09:35:51;;;;;;;;;;;5.40;92.90;;;;;;5074790;28;19962;-87
2023/01/18 09:38:16;;;;;;;;;;;5.70;92.90;;;;;;5067696;28;20000;-87
2023/01/18 09:40:42;;;;;;;;;;;5.70;91.90;;;;;;5069152;28;20056;-87
2023/01/18 09:43:27;;;;;;;;;;;5.70;91.30;;;;;;5067834;28;20002;-87
2023/01/18 09:45:54;;;;;;;;;;;5.70;91.60;;;;;;5047875;28;19952;-87
2023/01/18 09:48:26;;;;;;;;;;;5.70;91.60;;;;;;5062439;28;19988;-88
2023/01/18 09:50:53;;;;;;;;;;;5.70;91.50;;;;;;5066486;28;19941;-87
2023/01/18 09:53:47;;;;;;;;;;;5.80;91.60;;;;;;5052773;28;20381;-87
2023/01/18 09:56:17;;;;;;;;;;;5.90;91.50;;;;;;4988089;28;20381;-87
2023/01/18 09:59:01;;;;;;;;;;;5.90;91.60;;;;;;5069203;28;20019;-87
2023/01/18 10:01:30;;;;;;;;;;;5.90;91.70;;;;;;5068973;28;21191;-87
2023/01/18 10:03:58;;;;;;;;;;;5.90;91.50;;;;;;5071905;28;20041;-88
2023/01/18 10:06:44;;;;;;;;;;;6.10;91.70;;;;;;5071846;28;20002;-87
2023/01/18 10:09:14;;;;;;;;;;;6.40;91.40;;;;;;5070665;28;19946;-88
2023/01/18 10:11:47;;;;;;;;;;;6.40;89.70;;;;;;5072654;28;19946;-88
2023/01/18 10:14:31;;;;;;;;;;;6.60;88.70;;;;;;5065812;28;19972;-87
2023/01/18 10:16:59;;;;;;;;;;;6.50;87.80;;;;;;5063991;28;20306;-87
2023/01/18 10:19:26;;;;;;;;;;;6.40;87.80;;;;;;5066333;28;20424;-87
2023/01/18 10:22:04;;;;;;;;;;;6.40;88.20;;;;;;5066649;28;19953;-88
2023/01/18 10:24:38;;;;;;;;;;;6.20;88.40;;;;;;5072137;28;20328;-87
2023/01/18 10:27:12;;;;;;;;;;;6.20;88.90;;;;;;5062565;28;19974;-87
2023/01/18 10:29:37;;;;;;;;;;;6.60;88.20;;;;;;5067897;28;20032;-87
2023/01/18 10:32:16;;;;;;;;;;;6.60;87.90;;;;;;5070879;28;20058;-87
2023/01/18 10:34:44;;;;;;;;;;;6.50;88.20;;;;;;5065891;28;19981;-87
2023/01/18 10:37:28;;;;;;;;;;;6.80;87.90;;;;;;5064494;28;19943;-87
2023/01/18 10:39:56;;;;;;;;;;;6.90;87.00;;;;;;5073315;28;19964;-87
2023/01/18 10:42:28;;;;;;;;;;;6.90;87.20;;;;;;5069252;28;19941;-87
2023/01/18 10:44:53;;;;;;;;;;;6.90;87.30;;;;;;5069899;28;19964;-87
2023/01/18 10:47:19;;;;;;;;;;;6.80;87.90;;;;;;5073788;28;19949;-87
2023/01/18 10:49:47;;;;;;;;;;;6.80;88.10;;;;;;5063682;28;19948;-87
2023/01/18 10:52:29;;;;;;;;;;;6.70;87.70;;;;;;5073357;28;19960;-87
2023/01/18 10:54:55;;;;;;;;;;;6.50;88.60;;;;;;5062953;28;19942;-87
2023/01/18 10:57:33;;;;;;;;;;;6.40;88.90;;;;;;5070769;28;19987;-87
2023/01/18 10:59:59;;;;;;;;;;;6.40;88.80;;;;;;5056882;28;19963;-88
2023/01/18 11:02:33;;;;;;;;;;;6.50;88.60;;;;;;5075517;28;19949;-88
2023/01/18 11:05:01;;;;;;;;;;;6.60;88.40;;;;;;5075703;28;19949;-87
2023/01/18 11:07:27;;;;;;;;;;;6.60;88.10;;;;;;5075620;28;19946;-87
2023/01/18 11:09:54;;;;;;;;;;;6.70;87.70;;;;;;5076368;28;20381;-87
2023/01/18 11:12:40;;;;;;;;;;;6.80;87.70;;;;;;5076369;28;19940;-87
2023/01/18 11:15:14;;;;;;;;;;;6.90;87.80;;;;;;5074362;28;20546;-87
2023/01/18 11:17:49;;;;;;;;;;;7.20;86.70;;;;;;5066389;28;19944;-87
2023/01/18 11:20:20;;;;;;;;;;;7.20;86.20;;;;;;5076138;28;19957;-87
2023/01/18 11:22:55;;;;;;;;;;;7.30;86.10;;;;;;5076047;28;20036;-87
2023/01/18 11:25:21;;;;;;;;;;;7.40;85.60;;;;;;5076148;28;20074;-87
2023/01/18 11:27:47;;;;;;;;;;;7.40;85.60;;;;;;5075657;28;20005;-86
2023/01/18 11:30:20;;;;;;;;;;;7.00;85.60;;;;;;5058124;28;20046;-87
2023/01/18 11:32:45;;;;;;;;;;;6.70;87.00;;;;;;5076002;28;20499;-87
2023/01/18 11:35:20;;;;;;;;;;;6.60;87.40;;;;;;5076300;28;20090;-87
2023/01/18 11:37:46;;;;;;;;;;;6.80;87.70;;;;;;5075715;28;20452;-87
2023/01/18 11:40:17;;;;;;;;;;;6.90;87.30;;;;;;5076089;28;19959;-87
2023/01/18 11:42:43;;;;;;;;;;;7.00;87.20;;;;;;5075910;28;19939;-87
2023/01/18 11:45:28;;;;;;;;;;;7.40;86.70;;;;;;5057886;28;19952;-87
2023/01/18 11:47:54;;;;;;;;;;;7.50;85.50;;;;;;5075355;28;19948;-87
2023/01/18 11:50:27;;;;;;;;;;;7.70;85.60;;;;;;5074799;28;19945;-87
2023/01/18 11:52:55;;;;;;;;;;;7.90;84.90;;;;;;5075631;28;19953;-87
2023/01/18 11:55:32;;;;;;;;;;;8.30;83.80;;;;;;5075498;28;20015;-87
2023/01/18 11:57:58;;;;;;;;;;;8.30;82.40;;;;;;5057469;28;19948;-87
2023/01/18 12:00:27;;;;;;;;;;;8.30;82.50;;;;;;5075314;28;20005;-87
2023/01/18 12:03:01;;;;;;;;;;;8.30;82.20;;;;;;5075532;28;19941;-87
2023/01/18 12:05:33;;;;;;;;;;;7.80;83.40;;;;;;5075680;28;19991;-87
2023/01/18 12:08:17;;;;;;;;;;;7.50;84.20;;;;;;5074517;28;19954;-87
2023/01/18 12:11:05;;;;;;;;;;;7.40;85.20;;;;;;5072381;28;19952;-87
2023/01/18 12:13:42;;;;;;;;;;;7.30;85.70;;;;;;5074047;28;19994;-87
2023/01/18 12:16:20;;;;;;;;;;;7.10;85.60;;;;;;5074263;28;19949;-87
2023/01/18 12:18:56;;;;;;;;;;;7.10;86.10;;;;;;5056780;28;20446;-87
2023/01/18 12:21:35;;;;;;;;;;;7.00;86.40;;;;;;5074449;28;19956;-87
2023/01/18 12:24:19;;;;;;;;;;;7.00;86.90;;;;;;5074334;28;20093;-87
2023/01/18 12:26:56;;;;;;;;;;;7.00;87.00;;;;;;5071009;28;19944;-87
2023/01/18 12:29:28;;;;;;;;;;;7.00;87.30;;;;;;5073672;28;20035;-87
2023/01/18 12:32:12;;;;;;;;;;;7.20;87.30;;;;;;5068211;28;19955;-88
2023/01/18 12:34:40;;;;;;;;;;;7.10;86.80;;;;;;5069717;28;19948;-87
2023/01/18 12:37:26;;;;;;;;;;;7.10;87.30;;;;;;5062237;28;19947;-87
2023/01/18 12:39:57;;;;;;;;;;;7.10;87.30;;;;;;5051741;28;19962;-87
2023/01/18 12:42:42;;;;;;;;;;;7.30;85.70;;;;;;5072234;28;20025;-87
2023/01/18 12:45:24;;;;;;;;;;;7.40;85.50;;;;;;5069118;28;19937;-87
2023/01/18 12:48:04;;;;;;;;;;;7.40;85.90;;;;;;5071271;28;19946;-87
2023/01/18 12:50:32;;;;;;;;;;;7.40;86.20;;;;;;5072069;28;19955;-87
2023/01/18 12:53:01;;;;;;;;;;;7.30;86.90;;;;;;5071414;28;19943;-87
2023/01/18 12:55:28;;;;;;;;;;;7.20;87.00;;;;;;5064445;28;19997;-87
2023/01/18 12:57:57;;;;;;;;;;;7.00;87.70;;;;;;5073580;28;20400;-87
2023/01/18 13:00:39;;;;;;;;;;;6.90;87.80;;;;;;5070420;28;19961;-87
2023/01/18 13:03:13;;;;;;;;;;;7.10;87.60;;;;;;5068485;28;20396;-87
2023/01/18 13:05:55;;;;;;;;;;;7.10;87.00;;;;;;5069974;28;20682;-87
2023/01/18 13:08:26;;;;;;;;;;;7.20;87.00;;;;;;5071573;28;19947;-88
2023/01/18 13:10:54;;;;;;;;;;;7.60;86.90;;;;;;5068676;28;19944;-88
2023/01/18 13:13:24;;;;;;;;;;;7.90;86.40;;;;;;5067252;28;19971;-88
2023/01/18 13:16:10;;;;;;;;;;;7.80;85.70;;;;;;5066331;28;19949;-87
2023/01/18 13:18:41;;;;;;;;;;;7.80;85.00;;;;;;5068992;28;19949;-87
2023/01/18 13:21:17;;;;;;;;;;;7.70;85.70;;;;;;5063869;28;20014;-87
2023/01/18 13:24:01;;;;;;;;;;;7.70;85.80;;;;;;5064143;28;19953;-87
2023/01/18 13:26:33;;;;;;;;;;;7.60;85.50;;;;;;5064578;28;19990;-88
2023/01/18 13:29:04;;;;;;;;;;;7.70;85.90;;;;;;5069076;28;19945;-87
2023/01/18 13:31:30;;;;;;;;;;;7.90;85.10;;;;;;5066916;28;19944;-87
2023/01/18 13:33:56;;;;;;;;;;;8.20;83.30;;;;;;5071052;28;20075;-87
2023/01/18 13:36:22;;;;;;;;;;;8.40;82.00;;;;;;5067635;28;20462;-87
2023/01/18 13:38:52;;;;;;;;;;;8.50;81.10;;;;;;5061765;28;19960;-88
2023/01/18 13:41:25;;;;;;;;;;;8.50;80.90;;;;;;5067945;28;20066;-88
2023/01/18 13:43:50;;;;;;;;;;;8.30;81.60;;;;;;5066150;28;19949;-87
2023/01/18 13:46:20;;;;;;;;;;;8.40;81.80;;;;;;5065944;28;20042;-87
2023/01/18 13:48:45;;;;;;;;;;;8.60;80.40;;;;;;5067594;28;19971;-87
2023/01/18 13:51:38;;;;;;;;;;;8.50;80.90;;;;;;5072064;28;19951;-87
2023/01/18 13:54:03;;;;;;;;;;;8.20;81.80;;;;;;5026292;28;20008;-87
2023/01/18 13:56:29;;;;;;;;;;;7.90;82.60;;;;;;5070331;28;19948;-87
2023/01/18 13:58:57;;;;;;;;;;;7.70;83.80;;;;;;5069279;28;19941;-87
2023/01/18 14:01:24;;;;;;;;;;;7.70;84.00;;;;;;5069520;28;19951;-87
2023/01/18 14:03:50;;;;;;;;;;;8.10;82.60;;;;;;5066255;28;19946;-87
2023/01/18 14:06:22;;;;;;;;;;;8.20;81.90;;;;;;5070007;28;20015;-87
2023/01/18 14:08:50;;;;;;;;;;;8.30;81.80;;;;;;5070676;28;19949;-87
2023/01/18 14:11:24;;;;;;;;;;;8.40;81.70;;;;;;5069675;28;19950;-87
2023/01/18 14:13:50;;;;;;;;;;;8.00;82.60;;;;;;5066165;28;19968;-87
2023/01/18 14:16:15;;;;;;;;;;;7.70;83.20;;;;;;5065510;28;20374;-87
2023/01/18 14:18:47;;;;;;;;;;;7.50;84.20;;;;;;5052961;28;19940;-87
2023/01/18 14:21:33;;;;;;;;;;;7.40;84.50;;;;;;5070297;28;19990;-87
2023/01/18 14:24:14;;;;;;;;;;;7.40;85.00;;;;;;5025763;28;20035;-87
2023/01/18 14:26:41;;;;;;;;;;;7.20;85.60;;;;;;5066535;28;19990;-87
2023/01/18 14:29:29;;;;;;;;;;;7.20;86.10;;;;;;5069383;28;19948;-87
2023/01/18 14:31:55;;;;;;;;;;;7.10;86.50;;;;;;5069908;28;20030;-88
2023/01/18 14:34:29;;;;;;;;;;;7.20;86.60;;;;;;5068594;28;20000;-87
2023/01/18 14:36:55;;;;;;;;;;;7.20;86.70;;;;;;5070640;28;19945;-87
2023/01/18 14:39:21;;;;;;;;;;;7.10;86.80;;;;;;5070930;28;19990;-88
2023/01/18 14:41:50;;;;;;;;;;;7.10;86.90;;;;;;5072124;28;19944;-88
2023/01/18 14:44:20;;;;;;;;;;;7.20;86.70;;;;;;5069680;28;19944;-87
2023/01/18 14:46:47;;;;;;;;;;;7.40;86.10;;;;;;5060985;28;19948;-87
2023/01/18 14:49:15;;;;;;;;;;;7.40;85.90;;;;;;5064981;28;19952;-87
2023/01/18 14:51:46;;;;;;;;;;;7.40;86.10;;;;;;5040707;28;20097;-87
2023/01/18 14:54:15;;;;;;;;;;;7.30;86.20;;;;;;5068391;28;19941;-87
2023/01/18 14:56:41;;;;;;;;;;;7.20;86.30;;;;;;5072083;28;20043;-87
2023/01/18 14:59:32;;;;;;;;;;;7.20;86.40;;;;;;5070094;28;20464;-87
2023/01/18 15:02:02;;;;;;;;;;;7.30;85.90;;;;;;5061864;28;20403;-87
2023/01/18 15:04:29;;;;;;;;;;;7.10;86.10;;;;;;5063809;28;19949;-87
2023/01/18 15:07:02;;;;;;;;;;;7.10;86.40;;;;;;5071116;28;19944;-87
2023/01/18 15:09:33;;;;;;;;;;;7.20;86.30;;;;;;5069809;28;19942;-87
2023/01/18 15:12:00;;;;;;;;;;;7.20;86.50;;;;;;5066609;28;19954;-88
2023/01/18 15:14:28;;;;;;;;;;;7.20;86.80;;;;;;5063566;28;19970;-87
2023/01/18 15:16:54;;;;;;;;;;;7.20;86.70;;;;;;5063254;28;19939;-87
2023/01/18 15:19:26;;;;;;;;;;;7.10;86.60;;;;;;5066124;28;20453;-87
2023/01/18 15:21:51;;;;;;;;;;;7.10;86.70;;;;;;5064234;28;20087;-87
2023/01/18 15:24:18;;;;;;;;;;;7.10;86.70;;;;;;5067192;28;20456;-87
2023/01/18 15:26:45;;;;;;;;;;;6.90;87.20;;;;;;5070005;28;19946;-87